DEYYG EDDH-EDXR
Flight info
| Callsign | DEYYG |
|---|---|
| Flight time | N/A |
| Altitude | 10000 |
| Route | 5337N00955E 5340N00948E |
| Aircraft | TBM9/L-SDFGRWY/S |
Departure
| Time | 2026-05-03 20:37 |
|---|---|
| Airport | Hamburg Helmut Schmidt Airport (EDDH) |
Arrival
| Time | N/A |
|---|---|
| Airport | Rendsburg-Schachtholm Airfield (EDXR) |
| Time | Latitude | Longitude | Altitude | Speed | Heading |
|---|---|---|---|---|---|
| 2026-05-03 20:28 | 53.62698 | 9.98729 | 41 ft | 0 kts | 60° |
| 2026-05-03 20:35 | 53.62689 | 9.98671 | 41 ft | 10 kts | 291° |
| 2026-05-03 20:35 | 53.62750 | 9.98680 | 41 ft | 13 kts | 50° |
| 2026-05-03 20:35 | 53.62827 | 9.98826 | 42 ft | 27 kts | 51° |
| 2026-05-03 20:35 | 53.62961 | 9.99101 | 42 ft | 28 kts | 48° |
| 2026-05-03 20:36 | 53.63055 | 9.99239 | 43 ft | 16 kts | 350° |
| 2026-05-03 20:36 | 53.63089 | 9.99183 | 43 ft | 0 kts | 283° |
| 2026-05-03 20:36 | 53.63051 | 9.98857 | 43 ft | 66 kts | 235° |
| 2026-05-03 20:37 | 53.62613 | 9.98030 | 246 ft | 111 kts | 230° |
| 2026-05-03 20:37 | 53.62072 | 9.97029 | 840 ft | 121 kts | 231° |
| 2026-05-03 20:37 | 53.61501 | 9.95939 | 1526 ft | 126 kts | 232° |
| 2026-05-03 20:37 | 53.60926 | 9.94784 | 2192 ft | 131 kts | 234° |
| 2026-05-03 20:38 | 53.60347 | 9.93549 | 2867 ft | 136 kts | 235° |
| 2026-05-03 20:38 | 53.59775 | 9.92263 | 3501 ft | 139 kts | 235° |
| 2026-05-03 20:38 | 53.59213 | 9.90931 | 4192 ft | 140 kts | 236° |
| 2026-05-03 20:38 | 53.58670 | 9.89574 | 4919 ft | 142 kts | 236° |
| 2026-05-03 20:39 | 53.58081 | 9.88015 | 5024 ft | 173 kts | 238° |
| 2026-05-03 20:39 | 53.57463 | 9.86242 | 5035 ft | 186 kts | 240° |
| 2026-05-03 20:39 | 53.56856 | 9.84265 | 5024 ft | 196 kts | 256° |
| 2026-05-03 20:39 | 53.57736 | 9.82349 | 5012 ft | 218 kts | 311° |
| 2026-05-03 20:40 | 53.58843 | 9.80593 | 5028 ft | 220 kts | 310° |
| 2026-05-03 20:40 | 53.59953 | 9.78805 | 5034 ft | 223 kts | 313° |
| 2026-05-03 20:40 | 53.61392 | 9.77697 | 5030 ft | 239 kts | 346° |
| 2026-05-03 20:40 | 53.63058 | 9.78119 | 5031 ft | 250 kts | 21° |
| 2026-05-03 20:41 | 53.64408 | 9.79974 | 5030 ft | 254 kts | 50° |
| 2026-05-03 20:41 | 53.65480 | 9.82362 | 5000 ft | 259 kts | 56° |
| 2026-05-03 20:41 | 53.66519 | 9.84865 | 5004 ft | 261 kts | 56° |
| 2026-05-03 20:41 | 53.67691 | 9.87203 | 4985 ft | 262 kts | 41° |
| 2026-05-03 20:42 | 53.69104 | 9.89139 | 4988 ft | 262 kts | 39° |
| 2026-05-03 20:42 | 53.70502 | 9.91145 | 4996 ft | 264 kts | 40° |
| 2026-05-03 20:42 | 53.71877 | 9.93002 | 5390 ft | 248 kts | 32° |
| 2026-05-03 20:42 | 53.73311 | 9.94510 | 5842 ft | 239 kts | 31° |
| 2026-05-03 20:43 | 53.74700 | 9.96013 | 6288 ft | 236 kts | 32° |
| 2026-05-03 20:43 | 53.76069 | 9.97523 | 6707 ft | 234 kts | 32° |
| 2026-05-03 20:43 | 53.77440 | 9.99023 | 7107 ft | 234 kts | 32° |
| 2026-05-03 20:43 | 53.78809 | 10.00516 | 7522 ft | 235 kts | 32° |
| 2026-05-03 20:44 | 53.80184 | 10.02019 | 7941 ft | 236 kts | 32° |
| 2026-05-03 20:44 | 53.81609 | 10.03582 | 7988 ft | 252 kts | 32° |
| 2026-05-03 20:44 | 53.83110 | 10.05236 | 7992 ft | 262 kts | 32° |
| 2026-05-03 20:44 | 53.84653 | 10.06934 | 7995 ft | 267 kts | 32° |
| 2026-05-03 20:45 | 53.86223 | 10.08652 | 7996 ft | 270 kts | 32° |
| 2026-05-03 20:45 | 53.87834 | 10.10302 | 7982 ft | 271 kts | 24° |
| 2026-05-03 20:45 | 53.89625 | 10.11181 | 7970 ft | 267 kts | 6° |
| 2026-05-03 20:45 | 53.91454 | 10.11212 | 7971 ft | 261 kts | 348° |
| 2026-05-03 20:46 | 53.93205 | 10.10540 | 7972 ft | 257 kts | 340° |
| 2026-05-03 20:46 | 53.94946 | 10.09793 | 7967 ft | 258 kts | 341° |
| 2026-05-03 20:46 | 53.96689 | 10.09069 | 7969 ft | 257 kts | 341° |
| 2026-05-03 20:46 | 53.98428 | 10.08336 | 7968 ft | 257 kts | 341° |
| 2026-05-03 20:47 | 54.00160 | 10.07599 | 7966 ft | 257 kts | 341° |
| 2026-05-03 20:47 | 54.01890 | 10.06865 | 7964 ft | 256 kts | 341° |
| 2026-05-03 20:47 | 54.03597 | 10.06142 | 7975 ft | 256 kts | 341° |
| 2026-05-03 20:47 | 54.05259 | 10.05437 | 8485 ft | 238 kts | 340° |
| 2026-05-03 20:48 | 54.06844 | 10.04809 | 8457 ft | 232 kts | 345° |
| 2026-05-03 20:48 | 54.08424 | 10.04321 | 7305 ft | 227 kts | 341° |
| 2026-05-03 20:48 | 54.09821 | 10.03417 | 6737 ft | 194 kts | 326° |
| 2026-05-03 20:48 | 54.10884 | 10.02189 | 6066 ft | 179 kts | 310° |
| 2026-05-03 20:49 | 54.11713 | 10.00672 | 5323 ft | 176 kts | 298° |
| 2026-05-03 20:49 | 54.12344 | 9.98863 | 4279 ft | 181 kts | 288° |
| 2026-05-03 20:49 | 54.12817 | 9.96839 | 3140 ft | 183 kts | 287° |
| 2026-05-03 20:49 | 54.13331 | 9.94692 | 2987 ft | 205 kts | 288° |
| 2026-05-03 20:50 | 54.13912 | 9.92392 | 2989 ft | 216 kts | 289° |
| 2026-05-03 20:50 | 54.14509 | 9.90031 | 2979 ft | 221 kts | 289° |
| 2026-05-03 20:50 | 54.15115 | 9.87595 | 2976 ft | 224 kts | 289° |
| 2026-05-03 20:50 | 54.15721 | 9.85142 | 2971 ft | 225 kts | 289° |
| 2026-05-03 20:51 | 54.16396 | 9.82732 | 2979 ft | 227 kts | 299° |
| 2026-05-03 20:51 | 54.17385 | 9.80607 | 2876 ft | 232 kts | 305° |
| 2026-05-03 20:51 | 54.18409 | 9.78414 | 2541 ft | 239 kts | 304° |
| 2026-05-03 20:51 | 54.19445 | 9.76171 | 2231 ft | 241 kts | 304° |
| 2026-05-03 20:52 | 54.20478 | 9.73919 | 1977 ft | 240 kts | 304° |
| 2026-05-03 20:52 | 54.21482 | 9.71694 | 1967 ft | 233 kts | 304° |
| 2026-05-03 20:52 | 54.22460 | 9.69501 | 1966 ft | 232 kts | 304° |
| 2026-05-03 20:52 | 54.23426 | 9.67299 | 1958 ft | 230 kts | 304° |
| 2026-05-03 20:53 | 54.24380 | 9.65107 | 1957 ft | 228 kts | 304° |
| 2026-05-03 20:53 | 54.25030 | 9.62973 | 1986 ft | 173 kts | 264° |
| 2026-05-03 20:53 | 54.24451 | 9.62105 | 1998 ft | 102 kts | 195° |
| 2026-05-03 20:53 | 54.23699 | 9.62290 | 1614 ft | 111 kts | 190° |
| 2026-05-03 20:54 | 54.23111 | 9.61849 | 1381 ft | 100 kts | 220° |
| 2026-05-03 20:54 | 54.22157 | 9.60148 | 28 ft | 72 kts | 223° |